Terminal Aerodrome Forecast
Issued by NWS Amarillo, TX

Home | Current Version | Previous Version | Text Only | Print | Product List | Glossary On
Versions: 1 2 3 4 5 6 7 8 9 10 11 12 13 14 15
027
FTUS44 KAMA 142320
TAFDHT
TAF
KDHT 142320Z 1500/1524 10008KT P6SM BKN200
     FM150700 32008KT P6SM BKN100
     FM151800 24018G26KT P6SM SCT250=

USA.gov is the U.S. government's official web portal to all federal, state and local government web resources and services.